sensor_id;sensor_type;location;lat;lon;timestamp;pressure;altitude;pressure_sealevel;temperature;humidity
15007;BME280;7599;50.748;13.142;2023-03-23T00:00:41;94995.78;;;12.02;66.02
15007;BME280;7599;50.748;13.142;2023-03-23T00:03:43;94989.69;;;12.02;65.80
15007;BME280;7599;50.748;13.142;2023-03-23T00:06:44;94988.91;;;12.01;66.07
15007;BME280;7599;50.748;13.142;2023-03-23T00:09:46;94993.94;;;12.03;65.72
15007;BME280;7599;50.748;13.142;2023-03-23T00:12:54;94981.53;;;12.03;65.90
15007;BME280;7599;50.748;13.142;2023-03-23T00:15:57;94974.69;;;12.02;65.75
15007;BME280;7599;50.748;13.142;2023-03-23T00:19:00;94973.09;;;12.01;65.90
15007;BME280;7599;50.748;13.142;2023-03-23T00:22:03;94974.69;;;12.02;65.69
15007;BME280;7599;50.748;13.142;2023-03-23T00:25:04;94964.13;;;12.02;65.98
15007;BME280;7599;50.748;13.142;2023-03-23T00:28:07;94958.88;;;12.02;65.61
15007;BME280;7599;50.748;13.142;2023-03-23T00:31:09;94961.50;;;12.02;65.81
15007;BME280;7599;50.748;13.142;2023-03-23T00:34:11;94958.63;;;12.04;65.56
15007;BME280;7599;50.748;13.142;2023-03-23T00:37:12;94961.25;;;12.04;65.64
15007;BME280;7599;50.748;13.142;2023-03-23T00:40:16;94955.44;;;12.02;65.83
15007;BME280;7599;50.748;13.142;2023-03-23T00:43:20;94951.75;;;12.03;65.70
15007;BME280;7599;50.748;13.142;2023-03-23T00:46:24;94944.63;;;12.03;65.60
15007;BME280;7599;50.748;13.142;2023-03-23T00:49:26;94944.63;;;12.03;65.92
15007;BME280;7599;50.748;13.142;2023-03-23T00:52:28;94939.63;;;12.02;65.78
15007;BME280;7599;50.748;13.142;2023-03-23T00:55:29;94949.13;;;12.03;65.60
15007;BME280;7599;50.748;13.142;2023-03-23T00:58:32;94939.38;;;12.03;65.91
15007;BME280;7599;50.748;13.142;2023-03-23T01:01:34;94932.50;;;12.02;65.59
15007;BME280;7599;50.748;13.142;2023-03-23T01:04:38;94924.34;;;12.04;65.93
15007;BME280;7599;50.748;13.142;2023-03-23T01:07:39;94920.13;;;12.03;65.82
15007;BME280;7599;50.748;13.142;2023-03-23T01:10:41;94926.97;;;12.04;65.52
15007;BME280;7599;50.748;13.142;2023-03-23T01:13:44;94913.81;;;12.04;65.68
15007;BME280;7599;50.748;13.142;2023-03-23T01:16:45;94905.34;;;12.02;65.75
15007;BME280;7599;50.748;13.142;2023-03-23T01:19:47;94914.84;;;12.03;65.52
15007;BME280;7599;50.748;13.142;2023-03-23T01:22:49;94906.16;;;12.02;65.75
15007;BME280;7599;50.748;13.142;2023-03-23T01:25:50;94905.09;;;12.03;65.34
15007;BME280;7599;50.748;13.142;2023-03-23T01:28:56;94908.78;;;12.02;65.72
15007;BME280;7599;50.748;13.142;2023-03-23T01:31:57;94903.75;;;12.00;65.33
15007;BME280;7599;50.748;13.142;2023-03-23T01:34:59;94904.56;;;12.01;65.58
15007;BME280;7599;50.748;13.142;2023-03-23T01:38:01;94896.09;;;11.99;65.75
15007;BME280;7599;50.748;13.142;2023-03-23T01:41:03;94891.63;;;11.99;65.93
15007;BME280;7599;50.748;13.142;2023-03-23T01:44:59;94893.47;;;11.99;65.62
15007;BME280;7599;50.748;13.142;2023-03-23T01:47:29;94885.56;;;11.99;65.66
15007;BME280;7599;50.748;13.142;2023-03-23T01:50:34;94882.94;;;11.99;65.52
15007;BME280;7599;50.748;13.142;2023-03-23T01:53:39;94883.97;;;11.98;65.59
15007;BME280;7599;50.748;13.142;2023-03-23T01:56:45;94888.19;;;11.99;65.62
15007;BME280;7599;50.748;13.142;2023-03-23T01:59:52;94886.34;;;11.99;65.46
15007;BME280;7599;50.748;13.142;2023-03-23T02:02:56;94891.63;;;11.99;65.69
15007;BME280;7599;50.748;13.142;2023-03-23T02:05:58;94885.56;;;11.99;65.66
15007;BME280;7599;50.748;13.142;2023-03-23T02:09:00;94887.41;;;11.98;65.55
15007;BME280;7599;50.748;13.142;2023-03-23T02:12:03;94877.66;;;11.99;65.54
15007;BME280;7599;50.748;13.142;2023-03-23T02:15:06;94876.84;;;11.98;65.51
15007;BME280;7599;50.748;13.142;2023-03-23T02:18:12;94879.25;;;12.00;65.40
15007;BME280;7599;50.748;13.142;2023-03-23T02:21:44;94883.72;;;11.99;65.52
15007;BME280;7599;50.748;13.142;2023-03-23T02:24:58;94879.50;;;11.98;65.50
15007;BME280;7599;50.748;13.142;2023-03-23T02:28:15;94872.38;;;11.99;65.54
15007;BME280;7599;50.748;13.142;2023-03-23T02:31:42;94869.75;;;11.99;65.33
15007;BME280;7599;50.748;13.142;2023-03-23T02:34:49;94870.53;;;11.99;65.42
15007;BME280;7599;50.748;13.142;2023-03-23T02:37:57;94878.44;;;11.99;65.32
15007;BME280;7599;50.748;13.142;2023-03-23T02:41:01;94871.34;;;12.00;65.35
15007;BME280;7599;50.748;13.142;2023-03-23T02:44:04;94868.94;;;11.98;65.29
15007;BME280;7599;50.748;13.142;2023-03-23T02:47:08;94868.94;;;11.98;65.50
15007;BME280;7599;50.748;13.142;2023-03-23T02:50:16;94876.59;;;12.00;65.24
15007;BME280;7599;50.748;13.142;2023-03-23T02:53:23;94867.91;;;11.99;65.43
15007;BME280;7599;50.748;13.142;2023-03-23T02:56:26;94874.22;;;11.98;65.22
15007;BME280;7599;50.748;13.142;2023-03-23T02:59:29;94871.59;;;11.98;65.67
15007;BME280;7599;50.748;13.142;2023-03-23T03:02:34;94860.00;;;11.99;65.43
15007;BME280;7599;50.748;13.142;2023-03-23T03:05:44;94861.84;;;11.99;65.23
15007;BME280;7599;50.748;13.142;2023-03-23T03:08:51;94858.16;;;12.00;65.30
15007;BME280;7599;50.748;13.142;2023-03-23T03:11:59;94855.28;;;12.02;65.34
15007;BME280;7599;50.748;13.142;2023-03-23T03:15:10;94852.63;;;12.02;65.15
15007;BME280;7599;50.748;13.142;2023-03-23T03:18:18;94852.63;;;12.02;65.28
15007;BME280;7599;50.748;13.142;2023-03-23T03:21:27;94848.16;;;12.02;65.37
15007;BME280;7599;50.748;13.142;2023-03-23T03:24:31;94844.47;;;12.03;64.98
15007;BME280;7599;50.748;13.142;2023-03-23T03:27:32;94849.75;;;12.03;65.15
15007;BME280;7599;50.748;13.142;2023-03-23T03:30:37;94851.34;;;12.04;65.28
15007;BME280;7599;50.748;13.142;2023-03-23T03:33:40;94848.69;;;12.04;65.41
15007;BME280;7599;50.748;13.142;2023-03-23T03:36:44;94846.06;;;12.04;65.15
15007;BME280;7599;50.748;13.142;2023-03-23T03:39:46;94840.78;;;12.04;64.90
15007;BME280;7599;50.748;13.142;2023-03-23T03:42:47;94847.09;;;12.03;65.53
15007;BME280;7599;50.748;13.142;2023-03-23T03:45:49;94846.06;;;12.04;65.13
15007;BME280;7599;50.748;13.142;2023-03-23T03:48:50;94843.44;;;12.04;64.92
15007;BME280;7599;50.748;13.142;2023-03-23T03:51:53;94849.50;;;12.05;65.00
15007;BME280;7599;50.748;13.142;2023-03-23T03:54:55;94848.69;;;12.04;65.07
15007;BME280;7599;50.748;13.142;2023-03-23T03:57:56;94843.97;;;12.06;65.13
15007;BME280;7599;50.748;13.142;2023-03-23T04:00:59;94848.19;;;12.07;65.07
15007;BME280;7599;50.748;13.142;2023-03-23T04:04:00;94841.31;;;12.06;64.83
15007;BME280;7599;50.748;13.142;2023-03-23T04:07:03;94835.00;;;12.07;65.04
15007;BME280;7599;50.748;13.142;2023-03-23T04:10:06;94844.47;;;12.08;65.11
15007;BME280;7599;50.748;13.142;2023-03-23T04:13:08;94846.31;;;12.08;65.10
15007;BME280;7599;50.748;13.142;2023-03-23T04:16:09;94845.56;;;12.07;65.29
15007;BME280;7599;50.748;13.142;2023-03-23T04:19:11;94840.28;;;12.07;65.25
15007;BME280;7599;50.748;13.142;2023-03-23T04:22:15;94841.84;;;12.08;64.89
15007;BME280;7599;50.748;13.142;2023-03-23T04:25:19;94836.56;;;12.08;64.96
15007;BME280;7599;50.748;13.142;2023-03-23T04:28:22;94841.84;;;12.08;65.25
15007;BME280;7599;50.748;13.142;2023-03-23T04:31:24;94830.78;;;12.06;65.31
15007;BME280;7599;50.748;13.142;2023-03-23T04:34:26;94830.50;;;12.08;65.13
15007;BME280;7599;50.748;13.142;2023-03-23T04:37:29;94840.28;;;12.07;64.89
15007;BME280;7599;50.748;13.142;2023-03-23T04:40:30;94836.56;;;12.08;65.27
15007;BME280;7599;50.748;13.142;2023-03-23T04:43:31;94833.94;;;12.08;65.15
15007;BME280;7599;50.748;13.142;2023-03-23T04:46:41;94833.94;;;12.08;64.93
15007;BME280;7599;50.748;13.142;2023-03-23T04:49:45;94842.63;;;12.09;64.86
15007;BME280;7599;50.748;13.142;2023-03-23T04:52:49;94839.19;;;12.08;64.98
15007;BME280;7599;50.748;13.142;2023-03-23T04:55:51;94833.13;;;12.08;64.87
15007;BME280;7599;50.748;13.142;2023-03-23T04:58:52;94835.53;;;12.09;64.89
15007;BME280;7599;50.748;13.142;2023-03-23T05:01:54;94839.47;;;12.07;65.12
15007;BME280;7599;50.748;13.142;2023-03-23T05:04:56;94841.03;;;12.08;64.85
15007;BME280;7599;50.748;13.142;2023-03-23T05:08:00;94847.91;;;12.09;65.14
15007;BME280;7599;50.748;13.142;2023-03-23T05:11:02;94850.81;;;12.07;65.17
15007;BME280;7599;50.748;13.142;2023-03-23T05:14:03;94852.66;;;12.07;64.65
15007;BME280;7599;50.748;13.142;2023-03-23T05:17:05;94844.75;;;12.07;64.78
15007;BME280;7599;50.748;13.142;2023-03-23T05:20:09;94852.91;;;12.05;65.05
15007;BME280;7599;50.748;13.142;2023-03-23T05:23:13;94838.94;;;12.05;64.83
15007;BME280;7599;50.748;13.142;2023-03-23T05:26:14;94837.09;;;12.05;65.20
15007;BME280;7599;50.748;13.142;2023-03-23T05:29:16;94830.00;;;12.06;64.92
15007;BME280;7599;50.748;13.142;2023-03-23T05:32:17;94834.47;;;12.05;64.98
15007;BME280;7599;50.748;13.142;2023-03-23T05:35:21;94837.09;;;12.05;65.04
15007;BME280;7599;50.748;13.142;2023-03-23T05:38:25;94830.78;;;12.06;65.06
15007;BME280;7599;50.748;13.142;2023-03-23T05:41:26;94828.94;;;12.07;64.92
15007;BME280;7599;50.748;13.142;2023-03-23T05:44:28;94830.78;;;12.06;64.73
15007;BME280;7599;50.748;13.142;2023-03-23T05:47:29;94825.22;;;12.08;64.87
15007;BME280;7599;50.748;13.142;2023-03-23T05:50:31;94832.38;;;12.07;64.86
15007;BME280;7599;50.748;13.142;2023-03-23T05:53:34;94833.41;;;12.06;64.96
15007;BME280;7599;50.748;13.142;2023-03-23T05:56:35;94840.28;;;12.07;64.90
15007;BME280;7599;50.748;13.142;2023-03-23T05:59:37;94848.44;;;12.06;64.59
15007;BME280;7599;50.748;13.142;2023-03-23T06:02:39;94842.13;;;12.07;64.88
15007;BME280;7599;50.748;13.142;2023-03-23T06:05:44;94837.66;;;12.07;65.11
15007;BME280;7599;50.748;13.142;2023-03-23T06:08:46;94836.84;;;12.07;64.86
15007;BME280;7599;50.748;13.142;2023-03-23T06:11:50;94839.75;;;12.05;64.55
15007;BME280;7599;50.748;13.142;2023-03-23T06:14:52;94838.94;;;12.05;64.67
15007;BME280;7599;50.748;13.142;2023-03-23T06:17:53;94842.38;;;12.05;65.21
15007;BME280;7599;50.748;13.142;2023-03-23T06:20:56;94850.03;;;12.07;64.87
15007;BME280;7599;50.748;13.142;2023-03-23T06:23:59;94854.50;;;12.06;64.83
15007;BME280;7599;50.748;13.142;2023-03-23T06:27:01;94861.63;;;12.06;64.96
15007;BME280;7599;50.748;13.142;2023-03-23T06:30:04;94863.47;;;12.05;65.03
15007;BME280;7599;50.748;13.142;2023-03-23T06:33:05;94859.25;;;12.04;65.10
15007;BME280;7599;50.748;13.142;2023-03-23T06:36:10;94863.47;;;12.05;65.23
15007;BME280;7599;50.748;13.142;2023-03-23T06:39:13;94846.59;;;12.06;64.88
15007;BME280;7599;50.748;13.142;2023-03-23T06:42:15;94860.81;;;12.05;65.09
15007;BME280;7599;50.748;13.142;2023-03-23T06:45:17;94863.47;;;12.05;65.04
15007;BME280;7599;50.748;13.142;2023-03-23T06:48:20;94862.41;;;12.06;64.72
15007;BME280;7599;50.748;13.142;2023-03-23T06:51:21;94875.59;;;12.06;64.70
15007;BME280;7599;50.748;13.142;2023-03-23T06:54:24;94857.66;;;12.08;64.78
15007;BME280;7599;50.748;13.142;2023-03-23T06:57:26;94884.03;;;12.08;64.81
15007;BME280;7599;50.748;13.142;2023-03-23T07:00:27;94866.66;;;12.07;64.76
15007;BME280;7599;50.748;13.142;2023-03-23T07:03:29;94869.28;;;12.07;64.93
15007;BME280;7599;50.748;13.142;2023-03-23T07:06:31;94879.81;;;12.07;64.70
15007;BME280;7599;50.748;13.142;2023-03-23T07:09:35;94884.03;;;12.08;64.94
15007;BME280;7599;50.748;13.142;2023-03-23T07:12:37;94885.59;;;12.09;64.74
15007;BME280;7599;50.748;13.142;2023-03-23T07:15:40;94895.34;;;12.09;64.93
15007;BME280;7599;50.748;13.142;2023-03-23T07:18:42;94896.41;;;12.08;64.92
15007;BME280;7599;50.748;13.142;2023-03-23T07:21:43;94890.88;;;12.09;65.04
15007;BME280;7599;50.748;13.142;2023-03-23T07:24:46;94893.00;;;12.07;64.65
15007;BME280;7599;50.748;13.142;2023-03-23T07:27:48;94903.56;;;12.07;65.02
15007;BME280;7599;50.748;13.142;2023-03-23T07:30:50;94895.34;;;12.09;65.09
15007;BME280;7599;50.748;13.142;2023-03-23T07:33:51;94897.19;;;12.08;65.09
15007;BME280;7599;50.748;13.142;2023-03-23T07:36:53;94895.63;;;12.07;64.92
15007;BME280;7599;50.748;13.142;2023-03-23T07:39:57;94903.28;;;12.09;64.52
15007;BME280;7599;50.748;13.142;2023-03-23T07:42:59;94897.19;;;12.08;64.84
15007;BME280;7599;50.748;13.142;2023-03-23T07:46:01;94900.13;;;12.07;65.10
15007;BME280;7599;50.748;13.142;2023-03-23T07:49:02;94902.47;;;12.03;64.85
15007;BME280;7599;50.748;13.142;2023-03-23T07:52:05;94897.44;;;12.02;64.51
15007;BME280;7599;50.748;13.142;2023-03-23T07:55:11;94902.47;;;12.03;64.51
15007;BME280;7599;50.748;13.142;2023-03-23T07:58:17;94902.72;;;12.02;64.71
15007;BME280;7599;50.748;13.142;2023-03-23T08:01:20;94915.66;;;12.03;64.52
15007;BME280;7599;50.748;13.142;2023-03-23T08:04:23;94911.97;;;12.04;64.72
15007;BME280;7599;50.748;13.142;2023-03-23T08:07:25;94903.25;;;12.04;64.76
15007;BME280;7599;50.748;13.142;2023-03-23T08:10:27;94913.00;;;12.03;64.51
15007;BME280;7599;50.748;13.142;2023-03-23T08:13:29;94904.06;;;12.04;65.07
15007;BME280;7599;50.748;13.142;2023-03-23T08:16:31;94913.81;;;12.04;64.91
15007;BME280;7599;50.748;13.142;2023-03-23T08:19:32;94905.09;;;12.03;64.81
15007;BME280;7599;50.748;13.142;2023-03-23T08:22:37;94907.22;;;12.06;64.62
15007;BME280;7599;50.748;13.142;2023-03-23T08:25:41;94910.91;;;12.05;65.11
15007;BME280;7599;50.748;13.142;2023-03-23T08:28:43;94916.19;;;12.05;65.20
15007;BME280;7599;50.748;13.142;2023-03-23T08:31:45;94922.25;;;12.06;65.04
15007;BME280;7599;50.748;13.142;2023-03-23T08:34:47;94915.94;;;12.07;65.14
15007;BME280;7599;50.748;13.142;2023-03-23T08:37:49;94937.81;;;12.07;64.80
15007;BME280;7599;50.748;13.142;2023-03-23T08:40:57;94927.28;;;12.07;65.09
15007;BME280;7599;50.748;13.142;2023-03-23T08:43:59;94938.88;;;12.06;65.08
15007;BME280;7599;50.748;13.142;2023-03-23T08:47:00;94933.31;;;12.08;64.97
15007;BME280;7599;50.748;13.142;2023-03-23T08:50:04;94931.47;;;12.08;65.03
15007;BME280;7599;50.748;13.142;2023-03-23T08:53:06;94937.81;;;12.07;64.98
15007;BME280;7599;50.748;13.142;2023-03-23T08:56:10;94937.53;;;12.09;65.20
15007;BME280;7599;50.748;13.142;2023-03-23T08:59:13;94948.38;;;12.07;65.14
15007;BME280;7599;50.748;13.142;2023-03-23T09:02:15;94946.50;;;12.08;65.11
15007;BME280;7599;50.748;13.142;2023-03-23T09:05:19;94948.09;;;12.09;64.81
15007;BME280;7599;50.748;13.142;2023-03-23T09:08:21;94960.22;;;12.10;64.98
15007;BME280;7599;50.748;13.142;2023-03-23T09:11:25;94937.28;;;12.10;65.19
15007;BME280;7599;50.748;13.142;2023-03-23T09:14:26;94943.59;;;12.09;64.93
15007;BME280;7599;50.748;13.142;2023-03-23T09:17:27;94951.50;;;12.09;65.27
15007;BME280;7599;50.748;13.142;2023-03-23T09:20:29;94954.94;;;12.10;65.14
15007;BME280;7599;50.748;13.142;2023-03-23T09:23:31;94956.53;;;12.11;65.07
15007;BME280;7599;50.748;13.142;2023-03-23T09:26:34;94949.66;;;12.10;65.25
15007;BME280;7599;50.748;13.142;2023-03-23T09:29:37;94960.22;;;12.10;64.85
15007;BME280;7599;50.748;13.142;2023-03-23T09:32:38;94958.38;;;12.10;64.81
15007;BME280;7599;50.748;13.142;2023-03-23T09:35:41;94961.81;;;12.11;65.05
15007;BME280;7599;50.748;13.142;2023-03-23T09:38:42;94951.25;;;12.11;65.24
15007;BME280;7599;50.748;13.142;2023-03-23T09:42:05;94952.31;;;12.10;65.27
15007;BME280;7599;50.748;13.142;2023-03-23T09:45:15;94959.16;;;12.11;64.89
15007;BME280;7599;50.748;13.142;2023-03-23T09:48:30;94958.38;;;12.10;65.17
15007;BME280;7599;50.748;13.142;2023-03-23T09:51:41;94953.91;;;12.11;65.08
15007;BME280;7599;50.748;13.142;2023-03-23T09:54:44;94959.41;;;12.09;65.10
15007;BME280;7599;50.748;13.142;2023-03-23T09:57:52;94960.22;;;12.10;65.28
15007;BME280;7599;50.748;13.142;2023-03-23T10:00:58;94956.53;;;12.11;65.19
15007;BME280;7599;50.748;13.142;2023-03-23T10:04:06;94965.25;;;12.11;64.91
15007;BME280;7599;50.748;13.142;2023-03-23T10:07:14;94957.34;;;12.11;65.00
15007;BME280;7599;50.748;13.142;2023-03-23T10:10:16;94970.50;;;12.11;64.99
15007;BME280;7599;50.748;13.142;2023-03-23T10:13:27;94961.00;;;12.10;65.29
15007;BME280;7599;50.748;13.142;2023-03-23T10:16:36;94959.41;;;12.09;65.36
15007;BME280;7599;50.748;13.142;2023-03-23T10:19:46;94968.13;;;12.10;65.25
15007;BME280;7599;50.748;13.142;2023-03-23T10:22:54;94968.94;;;12.10;65.15
15007;BME280;7599;50.748;13.142;2023-03-23T10:26:01;94972.34;;;12.11;65.08
15007;BME280;7599;50.748;13.142;2023-03-23T10:29:12;94974.19;;;12.10;65.23
15007;BME280;7599;50.748;13.142;2023-03-23T10:32:17;94970.75;;;12.10;65.25
15007;BME280;7599;50.748;13.142;2023-03-23T10:35:24;94977.63;;;12.11;65.32
15007;BME280;7599;50.748;13.142;2023-03-23T10:38:31;94962.59;;;12.11;65.26
15007;BME280;7599;50.748;13.142;2023-03-23T10:41:34;94974.72;;;12.07;65.27
15007;BME280;7599;50.748;13.142;2023-03-23T10:44:37;94958.38;;;12.10;65.23
15007;BME280;7599;50.748;13.142;2023-03-23T10:47:42;94957.59;;;12.10;64.94
15007;BME280;7599;50.748;13.142;2023-03-23T10:50:50;94969.97;;;12.09;65.15
15007;BME280;7599;50.748;13.142;2023-03-23T10:53:57;94977.09;;;12.09;65.42
15007;BME280;7599;50.748;13.142;2023-03-23T10:56:59;94963.91;;;12.09;65.08
15007;BME280;7599;50.748;13.142;2023-03-23T11:00:05;94964.69;;;12.09;65.53
15007;BME280;7599;50.748;13.142;2023-03-23T11:03:23;94959.41;;;12.09;65.61
15007;BME280;7599;50.748;13.142;2023-03-23T11:06:27;94977.88;;;12.09;65.48
15007;BME280;7599;50.748;13.142;2023-03-23T11:09:35;94977.09;;;12.09;65.67
15007;BME280;7599;50.748;13.142;2023-03-23T11:12:37;94968.13;;;12.10;65.57
15007;BME280;7599;50.748;13.142;2023-03-23T11:15:41;94970.75;;;12.10;65.62
15007;BME280;7599;50.748;13.142;2023-03-23T11:18:44;94987.38;;;12.10;65.82
15007;BME280;7599;50.748;13.142;2023-03-23T11:21:47;94996.34;;;12.09;65.98
15007;BME280;7599;50.748;13.142;2023-03-23T11:24:52;94987.63;;;12.09;65.53
15007;BME280;7599;50.748;13.142;2023-03-23T11:27:54;95001.84;;;12.08;65.94
15007;BME280;7599;50.748;13.142;2023-03-23T11:30:58;94993.69;;;12.09;65.73
15007;BME280;7599;50.748;13.142;2023-03-23T11:34:03;95006.63;;;12.11;65.82
15007;BME280;7599;50.748;13.142;2023-03-23T11:37:09;95005.84;;;12.10;65.56
15007;BME280;7599;50.748;13.142;2023-03-23T11:40:16;94997.94;;;12.10;65.88
15007;BME280;7599;50.748;13.142;2023-03-23T11:43:21;95002.41;;;12.10;65.55
15007;BME280;7599;50.748;13.142;2023-03-23T11:46:34;95003.19;;;12.10;65.80
15007;BME280;7599;50.748;13.142;2023-03-23T11:49:41;94979.47;;;12.10;65.84
15007;BME280;7599;50.748;13.142;2023-03-23T11:52:48;94995.03;;;12.12;65.78
15007;BME280;7599;50.748;13.142;2023-03-23T11:55:56;94988.97;;;12.11;65.90
15007;BME280;7599;50.748;13.142;2023-03-23T11:59:00;94991.59;;;12.11;65.83
15007;BME280;7599;50.748;13.142;2023-03-23T12:02:21;94989.50;;;12.13;65.66
15007;BME280;7599;50.748;13.142;2023-03-23T12:05:32;94978.41;;;12.11;65.75
15007;BME280;7599;50.748;13.142;2023-03-23T12:08:46;94982.09;;;12.10;65.63
15007;BME280;7599;50.748;13.142;2023-03-23T12:11:58;94992.66;;;12.10;65.98
15007;BME280;7599;50.748;13.142;2023-03-23T12:15:20;94995.03;;;12.12;65.77
15007;BME280;7599;50.748;13.142;2023-03-23T12:18:32;94991.06;;;12.09;66.03
15007;BME280;7599;50.748;13.142;2023-03-23T12:21:41;94991.84;;;12.10;66.13
15007;BME280;7599;50.748;13.142;2023-03-23T12:24:53;94985.78;;;12.09;66.14
15007;BME280;7599;50.748;13.142;2023-03-23T12:28:03;94974.19;;;12.10;66.13
15007;BME280;7599;50.748;13.142;2023-03-23T12:31:11;94964.69;;;12.09;65.75
15007;BME280;7599;50.748;13.142;2023-03-23T12:34:28;94971.56;;;12.10;66.36
15007;BME280;7599;50.748;13.142;2023-03-23T12:37:44;94983.69;;;12.11;66.09
15007;BME280;7599;50.748;13.142;2023-03-23T12:40:57;94978.41;;;12.11;66.16
15007;BME280;7599;50.748;13.142;2023-03-23T12:44:06;94976.84;;;12.10;66.23
15007;BME280;7599;50.748;13.142;2023-03-23T12:47:21;94983.94;;;12.10;66.01
15007;BME280;7599;50.748;13.142;2023-03-23T12:50:30;94975.25;;;12.09;66.09
15007;BME280;7599;50.748;13.142;2023-03-23T12:53:36;94975.25;;;12.09;66.25
15007;BME280;7599;50.748;13.142;2023-03-23T12:56:48;94979.72;;;12.09;65.98
15007;BME280;7599;50.748;13.142;2023-03-23T12:59:54;94986.59;;;12.10;65.90
15007;BME280;7599;50.748;13.142;2023-03-23T13:03:02;94979.47;;;12.10;66.21
15007;BME280;7599;50.748;13.142;2023-03-23T13:06:10;94971.56;;;12.10;66.27
15007;BME280;7599;50.748;13.142;2023-03-23T13:09:17;94970.75;;;12.10;66.04
15007;BME280;7599;50.748;13.142;2023-03-23T13:12:21;94972.59;;;12.09;66.01
15007;BME280;7599;50.748;13.142;2023-03-23T13:15:31;94968.94;;;12.10;66.32
15007;BME280;7599;50.748;13.142;2023-03-23T13:18:39;94974.75;;;12.12;66.11
15007;BME280;7599;50.748;13.142;2023-03-23T13:21:49;94967.88;;;12.11;65.24
15007;BME280;7599;50.748;13.142;2023-03-23T13:24:53;94975.25;;;12.09;65.08
15007;BME280;7599;50.748;13.142;2023-03-23T13:27:57;94974.75;;;12.12;65.90
15007;BME280;7599;50.748;13.142;2023-03-23T13:31:01;94966.31;;;12.15;66.45
15007;BME280;7599;50.748;13.142;2023-03-23T13:34:06;94970.56;;;12.16;66.21
15007;BME280;7599;50.748;13.142;2023-03-23T13:37:21;94966.88;;;12.17;65.55
15007;BME280;7599;50.748;13.142;2023-03-23T13:40:27;94963.16;;;12.13;65.98
15007;BME280;7599;50.748;13.142;2023-03-23T13:43:31;94967.09;;;12.11;66.15
15007;BME280;7599;50.748;13.142;2023-03-23T13:46:33;94957.03;;;12.08;66.19
15007;BME280;7599;50.748;13.142;2023-03-23T13:49:45;94957.03;;;12.08;66.50
15007;BME280;7599;50.748;13.142;2023-03-23T13:52:53;94949.41;;;12.06;66.50
15007;BME280;7599;50.748;13.142;2023-03-23T13:56:13;94947.56;;;12.07;66.01
15007;BME280;7599;50.748;13.142;2023-03-23T13:59:31;94937.28;;;12.05;66.35
15007;BME280;7599;50.748;13.142;2023-03-23T14:02:36;94944.13;;;12.06;66.12
15007;BME280;7599;50.748;13.142;2023-03-23T14:05:40;94942.53;;;12.05;66.40
15007;BME280;7599;50.748;13.142;2023-03-23T14:08:47;94932.81;;;12.06;66.60
15007;BME280;7599;50.748;13.142;2023-03-23T14:11:54;94930.97;;;12.06;66.34
15007;BME280;7599;50.748;13.142;2023-03-23T14:15:00;94931.22;;;12.05;66.46
15007;BME280;7599;50.748;13.142;2023-03-23T14:18:04;94925.94;;;12.05;66.58
15007;BME280;7599;50.748;13.142;2023-03-23T14:21:14;94933.59;;;12.06;66.21
15007;BME280;7599;50.748;13.142;2023-03-23T14:24:20;94929.13;;;12.07;66.24
15007;BME280;7599;50.748;13.142;2023-03-23T14:27:23;94930.97;;;12.06;66.83
15007;BME280;7599;50.748;13.142;2023-03-23T14:30:26;94930.69;;;12.08;66.52
15007;BME280;7599;50.748;13.142;2023-03-23T14:33:29;94928.84;;;12.08;66.71
15007;BME280;7599;50.748;13.142;2023-03-23T14:36:31;94938.34;;;12.09;66.49
15007;BME280;7599;50.748;13.142;2023-03-23T14:39:35;94938.34;;;12.09;66.53
15007;BME280;7599;50.748;13.142;2023-03-23T14:42:37;94940.19;;;12.09;66.52
15007;BME280;7599;50.748;13.142;2023-03-23T14:45:39;94935.69;;;12.09;66.41
15007;BME280;7599;50.748;13.142;2023-03-23T14:48:40;94940.72;;;12.11;66.39
15007;BME280;7599;50.748;13.142;2023-03-23T14:51:49;94939.94;;;12.10;66.53
15007;BME280;7599;50.748;13.142;2023-03-23T14:54:53;94934.66;;;12.10;66.55
15007;BME280;7599;50.748;13.142;2023-03-23T14:57:55;94933.06;;;12.09;66.83
15007;BME280;7599;50.748;13.142;2023-03-23T15:00:59;94944.41;;;12.10;66.67
15007;BME280;7599;50.748;13.142;2023-03-23T15:04:05;94942.81;;;12.09;66.30
15007;BME280;7599;50.748;13.142;2023-03-23T15:07:09;94955.75;;;12.10;66.68
15007;BME280;7599;50.748;13.142;2023-03-23T15:10:16;94949.91;;;12.08;66.54
15007;BME280;7599;50.748;13.142;2023-03-23T15:13:18;94945.19;;;12.10;66.36
15007;BME280;7599;50.748;13.142;2023-03-23T15:16:22;94950.72;;;12.09;66.62
15007;BME280;7599;50.748;13.142;2023-03-23T15:19:26;94945.19;;;12.10;66.29
15007;BME280;7599;50.748;13.142;2023-03-23T15:22:30;94949.66;;;12.10;66.54
15007;BME280;7599;50.748;13.142;2023-03-23T15:25:34;94953.91;;;12.11;66.63
15007;BME280;7599;50.748;13.142;2023-03-23T15:28:40;94958.13;;;12.12;66.51
15007;BME280;7599;50.748;13.142;2023-03-23T15:31:44;94965.50;;;12.10;66.80
15007;BME280;7599;50.748;13.142;2023-03-23T15:34:46;94970.75;;;12.10;66.58
15007;BME280;7599;50.748;13.142;2023-03-23T15:37:49;94975.00;;;12.11;66.62
15007;BME280;7599;50.748;13.142;2023-03-23T15:40:55;94978.66;;;12.10;66.54
15007;BME280;7599;50.748;13.142;2023-03-23T15:43:58;94982.09;;;12.10;66.70
15007;BME280;7599;50.748;13.142;2023-03-23T15:47:15;94974.19;;;12.10;66.51
15007;BME280;7599;50.748;13.142;2023-03-23T15:50:19;94984.75;;;12.10;66.86
15007;BME280;7599;50.748;13.142;2023-03-23T15:53:30;94992.66;;;12.10;66.68
15007;BME280;7599;50.748;13.142;2023-03-23T15:56:33;94997.94;;;12.10;66.40
15007;BME280;7599;50.748;13.142;2023-03-23T15:59:35;94995.28;;;12.10;67.03
15007;BME280;7599;50.748;13.142;2023-03-23T16:02:37;94993.69;;;12.09;66.92
15007;BME280;7599;50.748;13.142;2023-03-23T16:05:40;94991.06;;;12.09;67.06
15007;BME280;7599;50.748;13.142;2023-03-23T16:08:43;94989.47;;;12.08;66.81
15007;BME280;7599;50.748;13.142;2023-03-23T16:11:56;94991.06;;;12.09;66.85
15007;BME280;7599;50.748;13.142;2023-03-23T16:14:59;94996.09;;;12.11;66.88
15007;BME280;7599;50.748;13.142;2023-03-23T16:18:01;94997.13;;;12.10;66.56